createdAt,value
2022-10-17T00:01:09.485Z,98585.00
2022-10-17T00:03:39.017Z,98582.53
2022-10-17T00:06:08.630Z,98586.06
2022-10-17T00:08:38.131Z,98570.88
2022-10-17T00:11:08.533Z,98579.81
2022-10-17T00:13:37.288Z,98587.13
2022-10-17T00:16:05.393Z,98584.69
2022-10-17T00:18:33.648Z,98590.38
2022-10-17T00:21:01.501Z,98583.59
2022-10-17T00:23:30.504Z,98584.69
2022-10-17T00:26:05.528Z,98589.81
2022-10-17T00:28:33.696Z,98585.19
2022-10-17T00:31:03.581Z,98593.84
2022-10-17T00:33:32.533Z,98589.50
2022-10-17T00:36:05.087Z,98590.84
2022-10-17T00:38:33.345Z,98588.41
2022-10-17T00:41:03.024Z,98599.28
2022-10-17T00:43:31.398Z,98602.25
2022-10-17T00:45:59.221Z,98601.72
2022-10-17T00:48:27.541Z,98601.19
2022-10-17T00:50:55.961Z,98602.28
2022-10-17T00:53:24.172Z,98601.47
2022-10-17T00:55:55.522Z,98605.53
2022-10-17T00:58:25.004Z,98600.09
2022-10-17T01:00:53.106Z,98601.19
2022-10-17T01:03:20.980Z,98610.41
2022-10-17T01:05:48.896Z,98602.53
2022-10-17T01:08:17.818Z,98606.31
2022-10-17T01:10:55.650Z,98596.25
2022-10-17T01:13:31.225Z,98594.63
2022-10-17T01:16:09.887Z,98597.03
2022-10-17T01:18:51.049Z,98597.00
2022-10-17T01:21:49.022Z,98603.25
2022-10-17T01:24:48.159Z,98603.50
2022-10-17T01:27:38.089Z,98598.91
2022-10-17T01:30:30.840Z,98594.00
2022-10-17T01:33:07.914Z,98599.94
2022-10-17T01:35:41.282Z,98592.91
2022-10-17T01:38:13.919Z,98591.53
2022-10-17T01:40:49.312Z,98595.56
2022-10-17T01:43:22.407Z,98598.81
2022-10-17T01:45:53.364Z,98603.19
2022-10-17T01:48:25.893Z,98597.19
2022-10-17T01:50:56.965Z,98588.50
2022-10-17T01:53:31.110Z,98594.47
2022-10-17T01:56:02.911Z,98596.09
2022-10-17T01:58:34.410Z,98594.47
2022-10-17T02:01:06.356Z,98591.19
2022-10-17T02:03:36.769Z,98592.25
2022-10-17T02:06:05.255Z,98590.81
2022-10-17T02:08:43.241Z,98596.16
2022-10-17T02:11:16.314Z,98595.94
2022-10-17T02:14:04.147Z,98592.72
2022-10-17T02:16:40.380Z,98596.50
2022-10-17T02:19:30.143Z,98592.72
2022-10-17T02:22:10.710Z,98588.63
2022-10-17T02:24:47.617Z,98594.28
2022-10-17T02:27:21.824Z,98596.69
2022-10-17T02:29:54.913Z,98593.72
2022-10-17T02:32:30.075Z,98599.66
2022-10-17T02:35:03.440Z,98593.44
2022-10-17T02:37:32.995Z,98600.72
2022-10-17T02:40:02.515Z,98592.06
2022-10-17T02:42:31.941Z,98600.69
2022-10-17T02:45:01.554Z,98600.44
2022-10-17T02:47:35.788Z,98601.25
2022-10-17T02:50:05.786Z,98605.03
2022-10-17T02:52:38.980Z,98598.81
2022-10-17T02:55:15.052Z,98604.47
2022-10-17T02:57:48.121Z,98601.22
2022-10-17T03:00:18.318Z,98601.22
2022-10-17T03:02:48.065Z,98600.38
2022-10-17T03:05:21.271Z,98607.94
2022-10-17T03:07:49.709Z,98599.81
2022-10-17T03:10:17.845Z,98606.25
2022-10-17T03:12:45.984Z,98605.44
2022-10-17T03:15:14.965Z,98608.97
2022-10-17T03:17:42.972Z,98607.06
2022-10-17T03:20:11.560Z,98618.44
2022-10-17T03:22:40.891Z,98613.81
2022-10-17T03:25:09.272Z,98619.16
2022-10-17T03:27:37.360Z,98621.88
2022-10-17T03:30:06.238Z,98615.66
2022-10-17T03:32:34.628Z,98622.69
2022-10-17T03:35:02.788Z,98624.31
2022-10-17T03:37:31.310Z,98622.69
2022-10-17T03:40:00.649Z,98624.28
2022-10-17T03:42:28.942Z,98617.25
2022-10-17T03:44:56.799Z,98623.97
2022-10-17T03:47:24.702Z,98629.09
2022-10-17T03:49:53.812Z,98631.78
2022-10-17T03:52:21.950Z,98634.75
2022-10-17T03:54:51.061Z,98629.34
2022-10-17T03:57:20.899Z,98623.63
2022-10-17T03:59:48.723Z,98630.16
2022-10-17T04:02:16.729Z,98625.81
2022-10-17T04:04:44.576Z,98638.28
2022-10-17T04:07:12.581Z,98637.16
2022-10-17T04:09:40.434Z,98626.84
2022-10-17T04:12:08.432Z,98633.84
2022-10-17T04:14:38.096Z,98632.75
2022-10-17T04:17:06.614Z,98639.81
2022-10-17T04:19:34.911Z,98634.03
2022-10-17T04:22:04.110Z,98641.91
2022-10-17T04:24:32.545Z,98647.00
2022-10-17T04:27:00.583Z,98641.84
2022-10-17T04:29:28.849Z,98656.41
2022-10-17T04:31:58.125Z,98647.16
2022-10-17T04:34:26.144Z,98646.34
2022-10-17T04:36:54.150Z,98650.94
2022-10-17T04:39:22.290Z,98650.13
2022-10-17T04:41:50.154Z,98658.53
2022-10-17T04:44:18.095Z,98655.28
2022-10-17T04:46:46.208Z,98659.03
2022-10-17T04:49:16.055Z,98661.75
2022-10-17T04:51:43.973Z,98663.38
2022-10-17T04:54:11.846Z,98653.31
2022-10-17T04:56:39.697Z,98661.44
2022-10-17T04:59:07.531Z,98660.31
2022-10-17T05:01:35.446Z,98660.94
2022-10-17T05:04:03.294Z,98664.41
2022-10-17T05:06:33.662Z,98660.31
2022-10-17T05:09:01.609Z,98654.84
2022-10-17T05:11:31.075Z,98654.84
2022-10-17T05:14:01.047Z,98656.47
2022-10-17T05:16:29.954Z,98664.28
2022-10-17T05:18:59.455Z,98657.84
2022-10-17T05:21:29.197Z,98670.81
2022-10-17T05:23:58.894Z,98675.66
2022-10-17T05:26:27.861Z,98677.03
2022-10-17T05:28:56.227Z,98668.56
2022-10-17T05:31:24.564Z,98672.06
2022-10-17T05:33:52.365Z,98668.03
2022-10-17T05:36:20.351Z,98669.13
2022-10-17T05:38:51.333Z,98666.47
2022-10-17T05:41:20.961Z,98680.81
2022-10-17T05:43:50.275Z,98686.78
2022-10-17T05:46:18.614Z,98688.44
2022-10-17T05:48:46.813Z,98691.00
2022-10-17T05:51:14.960Z,98683.34
2022-10-17T05:53:45.956Z,98694.50
2022-10-17T05:56:15.442Z,98691.28
2022-10-17T05:58:50.451Z,98685.31
2022-10-17T06:01:20.390Z,98692.38
2022-10-17T06:03:48.325Z,98692.63
2022-10-17T06:06:17.260Z,98691.56
2022-10-17T06:08:46.252Z,98698.63
2022-10-17T06:11:14.614Z,98703.53
2022-10-17T06:13:42.771Z,98705.41
2022-10-17T06:16:12.201Z,98708.69
2022-10-17T06:18:40.202Z,98712.69
2022-10-17T06:21:10.734Z,98703.78
2022-10-17T06:23:39.474Z,98710.63
2022-10-17T06:26:08.696Z,98696.59
2022-10-17T06:28:37.298Z,98706.03
2022-10-17T06:31:07.305Z,98706.78
2022-10-17T06:33:37.413Z,98708.44
2022-10-17T06:36:07.056Z,98706.09
2022-10-17T06:38:37.029Z,98707.94
2022-10-17T06:41:08.362Z,98710.88
2022-10-17T06:43:39.019Z,98723.91
2022-10-17T06:46:07.688Z,98718.19
2022-10-17T06:48:37.099Z,98723.66
2022-10-17T06:51:06.641Z,98719.88
2022-10-17T06:53:35.854Z,98737.16
2022-10-17T06:56:04.745Z,98731.44
2022-10-17T06:58:35.157Z,98735.59
2022-10-17T07:01:05.423Z,98735.66
2022-10-17T07:03:34.189Z,98746.56
2022-10-17T07:06:04.661Z,98746.38
2022-10-17T07:08:32.647Z,98749.69
2022-10-17T07:11:00.674Z,98750.63
2022-10-17T07:13:28.544Z,98754.78
2022-10-17T07:16:01.705Z,98757.88
2022-10-17T07:18:29.580Z,98752.56
2022-10-17T07:21:00.063Z,98759.72
2022-10-17T07:23:29.561Z,98759.91
2022-10-17T07:26:02.594Z,98748.41
2022-10-17T07:28:31.036Z,98743.69
2022-10-17T07:31:04.791Z,98749.03
2022-10-17T07:33:33.325Z,98760.28
2022-10-17T07:36:01.476Z,98752.25
2022-10-17T07:38:31.280Z,98758.56
2022-10-17T07:41:02.692Z,98748.34
2022-10-17T07:43:31.682Z,98748.38
2022-10-17T07:46:00.080Z,98741.31
2022-10-17T07:48:28.882Z,98754.63
2022-10-17T07:50:57.140Z,98754.69
2022-10-17T07:53:25.132Z,98761.75
2022-10-17T07:55:54.723Z,98762.03
2022-10-17T07:58:22.557Z,98757.09
2022-10-17T08:00:51.240Z,98759.78
2022-10-17T08:03:19.606Z,98768.44
2022-10-17T08:05:47.832Z,98770.59
2022-10-17T08:08:16.148Z,98764.59
2022-10-17T08:10:44.584Z,98769.38
2022-10-17T08:13:14.059Z,98772.59
2022-10-17T08:15:42.144Z,98776.09
2022-10-17T08:18:10.463Z,98787.47
2022-10-17T08:20:38.648Z,98776.50
2022-10-17T08:23:06.723Z,98778.03
2022-10-17T08:25:34.599Z,98778.22
2022-10-17T08:28:02.906Z,98779.47
2022-10-17T08:30:32.534Z,98780.22
2022-10-17T08:33:00.572Z,98785.31
2022-10-17T08:35:28.978Z,98796.03
2022-10-17T08:37:57.239Z,98792.31
2022-10-17T08:40:28.015Z,98798.78
2022-10-17T08:43:22.754Z,98796.28
2022-10-17T08:45:56.064Z,98803.78
2022-10-17T08:48:27.069Z,98801.00
2022-10-17T08:50:59.260Z,98804.66
2022-10-17T08:53:32.714Z,98810.28
2022-10-17T08:56:07.196Z,98808.53
2022-10-17T08:58:39.931Z,98814.22
2022-10-17T09:01:22.594Z,98802.84
2022-10-17T09:04:04.848Z,98802.25
2022-10-17T09:06:36.454Z,98789.56
2022-10-17T09:09:16.983Z,98800.91
2022-10-17T09:11:57.608Z,98804.53
2022-10-17T09:14:41.273Z,98810.38
2022-10-17T09:17:19.105Z,98803.91
2022-10-17T09:19:55.972Z,98800.19
2022-10-17T09:22:29.678Z,98809.56
2022-10-17T09:25:03.342Z,98806.28
2022-10-17T09:27:36.770Z,98807.53
2022-10-17T09:30:43.586Z,98811.00
2022-10-17T09:33:34.364Z,98805.22
2022-10-17T09:36:10.607Z,98808.31
2022-10-17T09:38:42.385Z,98807.41
2022-10-17T09:41:43.125Z,98808.22
2022-10-17T09:44:22.057Z,98807.78
2022-10-17T09:47:11.234Z,98804.53
2022-10-17T09:49:42.861Z,98801.91
2022-10-17T09:52:16.034Z,98803.44
2022-10-17T09:54:47.950Z,98807.59
2022-10-17T09:57:18.099Z,98802.50
2022-10-17T09:59:49.524Z,98805.97
2022-10-17T10:02:21.498Z,98803.84
2022-10-17T10:05:07.424Z,98796.53
2022-10-17T10:07:49.618Z,98799.28
2022-10-17T10:10:29.913Z,98794.72
2022-10-17T10:13:07.217Z,98794.13
2022-10-17T10:15:41.045Z,98795.31
2022-10-17T10:21:13.758Z,98789.28
2022-10-17T10:23:43.565Z,98794.03
2022-10-17T10:26:22.907Z,98794.22
2022-10-17T10:29:01.292Z,98792.19
2022-10-17T10:31:34.857Z,98799.81
2022-10-17T10:34:13.192Z,98794.91
2022-10-17T10:37:05.633Z,98799.53
2022-10-17T10:39:43.398Z,98802.19
2022-10-17T10:42:23.616Z,98806.75
2022-10-17T10:44:53.084Z,98810.28
2022-10-17T10:47:26.527Z,98812.41
2022-10-17T10:50:09.603Z,98813.97
2022-10-17T10:52:46.598Z,98819.13
2022-10-17T10:55:26.224Z,98818.88
2022-10-17T10:58:01.430Z,98816.19
2022-10-17T11:00:33.116Z,98814.94
2022-10-17T11:03:12.739Z,98814.50
2022-10-17T11:05:46.470Z,98808.06
2022-10-17T11:08:25.195Z,98806.97
2022-10-17T11:11:13.782Z,98807.69
2022-10-17T11:13:48.571Z,98818.56
2022-10-17T11:16:32.631Z,98809.22
2022-10-17T11:19:12.296Z,98809.84
2022-10-17T11:21:46.688Z,98806.78
2022-10-17T11:24:22.629Z,98801.28
2022-10-17T11:26:58.131Z,98806.00
2022-10-17T11:29:30.995Z,98801.19
2022-10-17T11:32:04.339Z,98805.75
2022-10-17T11:34:36.572Z,98802.22
2022-10-17T11:37:17.586Z,98797.38
2022-10-17T11:39:51.472Z,98795.00
2022-10-17T11:42:24.856Z,98799.22
2022-10-17T11:45:00.917Z,98799.06
2022-10-17T11:47:39.606Z,98789.97
2022-10-17T11:53:14.221Z,98789.19
2022-10-17T11:55:44.989Z,98782.38
2022-10-17T11:58:37.670Z,98784.97
2022-10-17T12:01:17.261Z,98784.50
2022-10-17T12:03:59.228Z,98771.84
2022-10-17T12:06:40.855Z,98771.34
2022-10-17T12:09:19.045Z,98776.13
2022-10-17T12:11:54.199Z,98771.75
2022-10-17T12:14:52.208Z,98775.97
2022-10-17T12:17:34.993Z,98774.66
2022-10-17T12:20:45.518Z,98774.16
2022-10-17T12:23:36.569Z,98777.22
2022-10-17T12:26:07.874Z,98771.38
2022-10-17T12:28:43.623Z,98778.34
2022-10-17T12:31:29.764Z,98777.34
2022-10-17T12:34:03.124Z,98772.97
2022-10-17T12:36:40.803Z,98770.06
2022-10-17T12:39:56.584Z,98769.22
2022-10-17T12:42:35.341Z,98768.69
2022-10-17T12:45:45.316Z,98764.63
2022-10-17T12:48:13.700Z,98768.66
2022-10-17T12:54:00.447Z,98773.00
2022-10-17T12:56:37.732Z,98777.97
2022-10-17T12:59:11.138Z,98770.69
2022-10-17T13:01:45.223Z,98774.47
2022-10-17T13:04:14.675Z,98780.03
2022-10-17T13:06:48.965Z,98771.94
2022-10-17T13:09:26.691Z,98771.16
2022-10-17T13:11:57.492Z,98772.50
2022-10-17T13:14:40.279Z,98783.03
2022-10-17T13:17:25.987Z,98779.31
2022-10-17T13:19:54.332Z,98776.91
2022-10-17T13:22:24.568Z,98785.69
2022-10-17T13:24:54.912Z,98794.75
2022-10-17T13:27:26.368Z,98800.13
2022-10-17T13:29:56.386Z,98799.97
2022-10-17T13:32:27.831Z,98793.16
2022-10-17T13:35:17.785Z,98798.69
2022-10-17T13:37:53.718Z,98803.13
2022-10-17T13:40:49.170Z,98808.00
2022-10-17T13:43:18.552Z,98807.84
2022-10-17T13:45:50.681Z,98818.53
2022-10-17T13:48:24.000Z,98818.19
2022-10-17T13:50:56.347Z,98821.91
2022-10-17T13:53:30.791Z,98821.91
2022-10-17T13:56:27.718Z,98824.03
2022-10-17T13:58:51.853Z,98829.69
2022-10-17T14:01:21.766Z,98827.59
2022-10-17T14:04:07.140Z,98821.75
2022-10-17T14:06:45.151Z,98835.66
2022-10-17T14:09:22.420Z,98841.66
2022-10-17T14:12:03.701Z,98835.19
2022-10-17T14:14:51.743Z,98835.50
2022-10-17T14:17:25.389Z,98844.56
2022-10-17T14:20:14.165Z,98840.88
2022-10-17T14:22:50.627Z,98843.44
2022-10-17T14:25:30.903Z,98847.31
2022-10-17T14:28:08.330Z,98843.28
2022-10-17T14:30:55.578Z,98836.63
2022-10-17T14:33:28.900Z,98838.09
2022-10-17T14:36:01.591Z,98841.34
2022-10-17T14:38:30.926Z,98846.81
2022-10-17T14:41:30.593Z,98841.78
2022-10-17T14:43:55.709Z,98843.09
2022-10-17T14:46:24.006Z,98838.22
2022-10-17T14:48:57.717Z,98852.41
2022-10-17T14:51:32.417Z,98853.88
2022-10-17T14:54:25.125Z,98844.13
2022-10-17T14:56:56.029Z,98852.22
2022-10-17T14:59:52.047Z,98856.88
2022-10-17T15:02:14.670Z,98857.63
2022-10-17T15:04:42.815Z,98853.41
2022-10-17T15:07:15.064Z,98854.53
2022-10-17T15:09:43.836Z,98859.22
2022-10-17T15:12:17.508Z,98859.97
2022-10-17T15:14:48.035Z,98851.34
2022-10-17T15:17:18.614Z,98854.94
2022-10-17T15:19:46.674Z,98849.84
2022-10-17T15:22:16.834Z,98850.16
2022-10-17T15:24:47.672Z,98849.97
2022-10-17T15:27:18.063Z,98854.97
2022-10-17T15:29:47.196Z,98849.59
2022-10-17T15:32:15.943Z,98859.28
2022-10-17T15:34:44.268Z,98855.84
2022-10-17T15:37:22.159Z,98868.03
2022-10-17T15:39:53.647Z,98858.59
2022-10-17T15:42:24.331Z,98851.09
2022-10-17T15:44:54.122Z,98850.09
2022-10-17T15:47:28.712Z,98841.50
2022-10-17T15:49:57.691Z,98840.00
2022-10-17T15:52:27.950Z,98845.28
2022-10-17T15:54:58.378Z,98843.81
2022-10-17T15:57:32.738Z,98849.88
2022-10-17T16:00:01.661Z,98850.56
2022-10-17T16:02:29.465Z,98845.19
2022-10-17T16:04:57.267Z,98848.38
2022-10-17T16:07:26.880Z,98853.25
2022-10-17T16:09:55.033Z,98851.56
2022-10-17T16:12:28.981Z,98854.81
2022-10-17T16:14:57.331Z,98866.66
2022-10-17T16:17:26.798Z,98855.22
2022-10-17T16:19:55.157Z,98865.28
2022-10-17T16:22:32.150Z,98873.56
2022-10-17T16:25:07.791Z,98874.16
2022-10-17T16:27:35.796Z,98872.00
2022-10-17T16:30:04.581Z,98881.28
2022-10-17T16:32:32.741Z,98890.44
2022-10-17T16:35:01.663Z,98894.75
2022-10-17T16:37:30.885Z,98890.81
2022-10-17T16:39:59.041Z,98891.47
2022-10-17T16:42:26.982Z,98901.78
2022-10-17T16:44:54.991Z,98901.63
2022-10-17T16:47:22.864Z,98908.34
2022-10-17T16:49:50.648Z,98906.84
2022-10-17T16:52:18.498Z,98909.66
2022-10-17T16:54:47.746Z,98901.88
2022-10-17T16:57:15.711Z,98911.53
2022-10-17T16:59:43.596Z,98909.44
2022-10-17T17:02:12.137Z,98902.13
2022-10-17T17:04:40.205Z,98911.53
2022-10-17T17:07:08.087Z,98917.00
2022-10-17T17:09:36.074Z,98917.03
2022-10-17T17:12:05.567Z,98914.34
2022-10-17T17:14:33.384Z,98926.69
2022-10-17T17:17:01.175Z,98927.00
2022-10-17T17:19:29.153Z,98928.50
2022-10-17T17:21:56.999Z,98926.34
2022-10-17T17:24:25.572Z,98938.63
2022-10-17T17:26:55.103Z,98931.31
2022-10-17T17:29:25.757Z,98940.06
2022-10-17T17:31:53.618Z,98927.63
2022-10-17T17:34:21.532Z,98933.41
2022-10-17T17:36:49.313Z,98940.25
2022-10-17T17:39:17.433Z,98931.22
2022-10-17T17:41:55.989Z,98938.94
2022-10-17T17:44:25.235Z,98935.16
2022-10-17T17:46:54.440Z,98940.38
2022-10-17T17:49:23.085Z,98948.56
2022-10-17T17:51:50.966Z,98949.38
2022-10-17T17:54:18.809Z,98942.31
2022-10-17T17:56:46.873Z,98943.16
2022-10-17T17:59:14.682Z,98940.47
2022-10-17T18:01:44.924Z,98945.13
2022-10-17T18:04:13.179Z,98954.16
2022-10-17T18:06:41.224Z,98955.53
2022-10-17T18:09:10.136Z,98955.81
2022-10-17T18:11:38.767Z,98964.28
2022-10-17T18:14:08.591Z,98962.13
2022-10-17T18:16:37.698Z,98969.78
2022-10-17T18:19:08.967Z,98967.59
2022-10-17T18:21:37.610Z,98967.63
2022-10-17T18:24:06.120Z,98976.88
2022-10-17T18:26:34.596Z,98976.09
2022-10-17T18:29:02.503Z,98973.63
2022-10-17T18:31:35.867Z,98975.56
2022-10-17T18:34:05.114Z,98968.47
2022-10-17T18:36:35.783Z,98967.38
2022-10-17T18:39:04.547Z,98963.56
2022-10-17T18:41:33.719Z,98971.75
2022-10-17T18:44:02.972Z,98975.03
2022-10-17T18:46:35.834Z,98982.13
2022-10-17T18:49:05.021Z,98985.94
2022-10-17T18:51:37.950Z,98977.78
2022-10-17T18:54:07.849Z,98981.03
2022-10-17T18:56:36.162Z,98984.59
2022-10-17T18:59:04.407Z,98991.69
2022-10-17T19:01:33.636Z,98982.97
2022-10-17T19:04:01.758Z,98985.97
2022-10-17T19:06:32.051Z,98983.50
2022-10-17T19:09:03.178Z,98985.19
2022-10-17T19:11:33.259Z,98986.81
2022-10-17T19:14:03.535Z,98988.19
2022-10-17T19:16:33.232Z,98995.00
2022-10-17T19:19:10.120Z,98999.34
2022-10-17T19:21:42.671Z,98999.34
2022-10-17T19:24:15.125Z,99002.31
2022-10-17T19:26:44.759Z,99004.75
2022-10-17T19:29:15.274Z,99001.22
2022-10-17T19:31:43.237Z,98997.66
2022-10-17T19:34:11.639Z,98996.03
2022-10-17T19:36:40.327Z,99002.03
2022-10-17T19:39:12.033Z,99006.09
2022-10-17T19:41:42.845Z,99001.47
2022-10-17T19:44:11.174Z,99003.63
2022-10-17T19:46:40.211Z,98999.28
2022-10-17T19:49:12.644Z,99000.06
2022-10-17T19:51:42.309Z,98995.19
2022-10-17T19:54:11.078Z,98997.09
2022-10-17T19:56:40.348Z,99002.25
2022-10-17T19:59:09.668Z,98995.44
2022-10-17T20:01:41.228Z,98995.69
2022-10-17T20:04:10.801Z,98995.16
2022-10-17T20:06:39.412Z,98989.72
2022-10-17T20:09:11.035Z,98997.06
2022-10-17T20:11:42.093Z,98988.34
2022-10-17T20:14:12.329Z,98998.41
2022-10-17T20:16:40.212Z,98990.25
2022-10-17T20:19:11.113Z,98985.63
2022-10-17T20:21:40.628Z,98981.81
2022-10-17T20:24:12.829Z,98984.53
2022-10-17T20:26:41.170Z,98993.78
2022-10-17T20:29:13.804Z,98986.69
2022-10-17T20:31:43.269Z,98986.44
2022-10-17T20:34:14.016Z,98982.63
2022-10-17T20:36:42.619Z,98986.72
2022-10-17T20:39:12.560Z,98990.53
2022-10-17T20:41:40.925Z,98990.25
2022-10-17T20:44:09.065Z,98996.50
2022-10-17T20:46:44.851Z,98997.56
2022-10-17T20:49:18.700Z,99002.47
2022-10-17T20:51:47.407Z,98998.38
2022-10-17T20:54:15.470Z,99007.91
2022-10-17T20:56:43.285Z,99006.25
2022-10-17T20:59:17.609Z,99003.00
2022-10-17T21:01:47.217Z,99011.97
2022-10-17T21:04:44.328Z,99010.59
2022-10-17T21:07:04.177Z,99010.06
2022-10-17T21:09:32.373Z,99004.34
2022-10-17T21:14:29.462Z,99007.63
2022-10-17T21:17:03.733Z,99005.97
2022-10-17T21:19:32.720Z,99009.78
2022-10-17T21:22:00.602Z,99014.94
2022-10-17T21:24:39.610Z,99013.00
2022-10-17T21:27:14.434Z,99005.38
2022-10-17T21:29:42.340Z,99011.34
2022-10-17T21:32:25.133Z,99014.59
2022-10-17T21:35:00.517Z,99020.31
2022-10-17T21:37:28.355Z,99005.34
2022-10-17T21:39:56.178Z,99016.44
2022-10-17T21:42:24.108Z,99017.28
2022-10-17T21:44:51.989Z,99018.34
2022-10-17T21:47:23.256Z,99016.72
2022-10-17T21:49:53.444Z,99013.44
2022-10-17T21:52:21.329Z,99017.78
2022-10-17T21:54:49.369Z,99011.22
2022-10-17T21:59:44.929Z,99013.91
2022-10-17T22:02:14.713Z,99015.00
2022-10-17T22:04:43.917Z,99021.53
2022-10-17T22:07:16.337Z,99015.84
2022-10-17T22:09:44.161Z,99015.31
2022-10-17T22:12:11.949Z,99013.69
2022-10-17T22:14:43.017Z,99003.59
2022-10-17T22:17:10.860Z,98995.69
2022-10-17T22:19:38.668Z,98997.31
2022-10-17T22:22:07.909Z,98990.25
2022-10-17T22:24:35.873Z,98985.91
2022-10-17T22:27:03.686Z,98987.53
2022-10-17T22:29:31.701Z,98981.84
2022-10-17T22:31:59.531Z,98991.06
2022-10-17T22:34:27.864Z,98988.63
2022-10-17T22:36:56.023Z,98989.44
2022-10-17T22:39:25.724Z,98978.28
2022-10-17T22:41:53.611Z,98976.66
2022-10-17T22:44:21.744Z,98983.72
2022-10-17T22:46:49.858Z,98976.41
2022-10-17T22:49:18.029Z,98981.56
2022-10-17T22:51:46.005Z,98977.50
2022-10-17T22:54:13.805Z,98981.84
2022-10-17T22:56:43.028Z,98978.84
2022-10-17T22:59:11.192Z,98975.31
2022-10-17T23:01:39.392Z,98971.50
2022-10-17T23:04:07.185Z,98972.56
2022-10-17T23:06:35.239Z,98971.75
2022-10-17T23:09:03.203Z,98970.38
2022-10-17T23:11:31.370Z,98970.66
2022-10-17T23:14:00.577Z,98970.94
2022-10-17T23:16:28.397Z,98970.38
2022-10-17T23:18:56.460Z,98963.31
2022-10-17T23:21:24.574Z,98965.47
2022-10-17T23:23:52.670Z,98966.00
2022-10-17T23:26:20.645Z,98957.28
2022-10-17T23:28:48.794Z,98954.03
2022-10-17T23:31:20.501Z,98959.16
2022-10-17T23:33:50.392Z,98955.34
2022-10-17T23:36:20.891Z,98956.41
2022-10-17T23:38:52.629Z,98957.75
2022-10-17T23:41:23.310Z,98959.66
2022-10-17T23:43:51.830Z,98956.13
2022-10-17T23:46:21.952Z,98949.59
2022-10-17T23:48:50.289Z,98947.13
2022-10-17T23:51:18.928Z,98950.94
2022-10-17T23:53:48.021Z,98939.50
2022-10-17T23:56:16.530Z,98938.69
2022-10-17T23:58:45.002Z,98937.59
